Архив погоды в Донецке за Ноябрь, 2018 год

icon
Год:Все200220032004200520062007200820092010201120122013201420152016201720182019
Месяц:ЯнварьФевральМартАпрельМайИюньИюльАвгустСентябрьОктябрьНоябрьДекабрь
Дата Облачность Температура (д/н), °C Давление, мм Влажность, % Ветер, м/с
01.11.2018 Облачность пасмурно +8 / +3 754 77 В, 6
02.11.2018 Облачность ясно +12 / +3 752 54 В, 6
03.11.2018 Облачность ясно +12 / +2 749 56 В, 5
04.11.2018 Облачность ясно +14 / +8 746 59 С-З, 1
05.11.2018 Облачность пасмурно +9 / +5 747 64 В, 4
06.11.2018 Облачность ясно +9 / +3 748 59 В, 4
07.11.2018 Облачность ясно +9 / +1 746 54 В, 3
08.11.2018 Облачность ясно +10 / -1 744 53 С, 2
09.11.2018 Облачность ясно +10 / +0 743 51 С, 2
10.11.2018 Облачность пасмурно +0 / +0 743 100 С-В, 1
11.11.2018 Облачность пасмурно +3 / -2 748 79 В, 5
12.11.2018 Облачность пасмурно -4 / -5 752 71 В, 6
13.11.2018 Облачность пасмурно -4 / -2 751 75 С-В, 6
14.11.2018 Облачность пасмурно +4 / -2 746 67 В, 4
15.11.2018 Облачность ясно +2 / -1 745 39 В, 6
16.11.2018 Облачность ясно -1 / -2 747 79 В, 7
17.11.2018 Облачность снег -2 / -3 749 84 С-В, 5
18.11.2018 Облачность ясно +2 / -1 745 49 В, 1
19.11.2018 Облачность пасмурно +1 / -1 743 83 В, 4
20.11.2018 Облачность дождь -1 / -6 739 97 С-В, 4
21.11.2018 Облачность ясно -1 / -5 742 85 С-В, 2
22.11.2018 Облачность пасмурно -3 / -7 741 78 С-З, 2
23.11.2018 Облачность ясно -1 / -7 745 75 С-З, 1
24.11.2018 Облачность ясно -1 / -6 746 80 Ю-З, 2
25.11.2018 Облачность пасмурно -2 / +1 740 92 нет
26.11.2018 Облачность ясно +4 / +2 736 92 Ю, 4
27.11.2018 Облачность пасмурно +3 / -1 730 100 В, 2
28.11.2018 Облачность пасмурно -4 / -5 739 85 С, 5
29.11.2018 Облачность ясно -3 / -9 752 57 С-В, 4
30.11.2018 Облачность ясно -4 / -5 749 51 В, 11
icon
Облачность:пасмурно пасмурно
Темп. днем:-4..-2 °C
Темп. ночью:-8..-6 °C
Давление:743 мм
Влажность:85 %
Ветер:С, 1 м/с
icon
USDusd25,18(+0,03284)
RUBrub0,38(-0,00300)
EUReur27,95(+0,10434)
icon
Вт. 20 Август 2019
icon
Логин:
Код: ---
 
Реклама
icon